Fort Worth Nas Jrb/Carswell field
KNFW : now visible

Airfield :











YOU CAN JOIN US ON...

 
LOGIN :

Register | Disclaimer

   EN    FR    IT 

 









Legend :    VFR   Marginal VFR   IFR   Intensive IFR   Very Intensive IFR
Visi :
Ceiling :
>= 8 km
>= 3000ft
5 to 8 km
1000 to 3000 ft
1500m to 5 km
500 to 1000 ft
800 to 1500m
200 to 500 ft
< 800m
< 200 ft
Symbols :   Thunderstorms  Fog  Heavy snow  Heavy precipitations  Wind > 20 kt






- Airport Elevation : 650 ft


KNFW - Fort Worth Nas Jrb/Carswell field

CURRENT METAR :
  • 171852Z 08008KT 10SM FEW024 BKN070 BKN120 24/19 A2984 RMK AO2 SLP091 T02440194 $

EXPIRED METARs :
  • 171752Z 10004KT 10SM FEW023 BKN060 OVC120 24/19 A2987 RMK AO2 SLP100 60024 T02390194 10239 20194 55007 $
  • 171652Z 16008KT 10SM BKN050 BKN080 OVC120 23/19 A2982 RMK AO2 SLP082 T02280189 $

TAF TAF KNFW
Valid from the 17 at 18:00 until the 18 at 15:00 UTC


1718/1815 VRB06KT 9999 SCT025 BKN050 OVC100 QNH2982INS
BECMG 1802/1804 14015KT 9999 -SHRA VCTS BKN020 OVC035 QNH2976INS
BECMG 1806/1808 17018G25KT 4800 -TSRA BKN010CB OVC020 QNH2978INS
BECMG 1810/1812 17015G22KT 9000 -SHRA BR VCTS BKN006CB OVC012 QNH2975INS T29/1721Z T20/1811Z AMD 1830 FN20046
KZFW FIR / North America



MET'MAP, your aeronautical weather chart ! - Copyright ORBIFLY December 2007 - Disclaimer

ORBIFLY MET'MAP TEAM :

Programming & Development : Alexandra Zaïnal
Concept & original design : Baudouin d'Aumeries
Assistance for programming : Marc-Olivier Méhu
Technical & hardware support : Manuel Goepfert

Contact : metmap@orbifly.com




SOURCES & CREDITS :

   NOAA       Earth
Advisory